createdAt,value
2023-03-29T00:00:00.800Z,96.28
2023-03-29T00:10:05.061Z,100.00
2023-03-29T00:20:11.134Z,96.21
2023-03-29T00:30:14.524Z,97.22
2023-03-29T00:40:17.146Z,96.56
2023-03-29T00:50:31.896Z,96.81
2023-03-29T01:00:41.012Z,100.00
2023-03-29T01:11:05.790Z,100.00
2023-03-29T01:21:22.070Z,95.28
2023-03-29T01:31:31.341Z,95.25
2023-03-29T01:42:15.796Z,93.77
2023-03-29T01:52:25.649Z,90.75
2023-03-29T02:02:31.245Z,90.51
2023-03-29T02:12:34.265Z,91.86
2023-03-29T02:22:43.102Z,99.77
2023-03-29T02:33:02.282Z,99.87
2023-03-29T02:43:08.068Z,93.62
2023-03-29T02:53:19.667Z,88.10
2023-03-29T03:03:22.374Z,90.49
2023-03-29T03:13:25.081Z,94.99
2023-03-29T03:23:29.202Z,99.66
2023-03-29T03:33:31.865Z,100.00
2023-03-29T03:43:34.425Z,100.00
2023-03-29T03:53:37.507Z,100.00
2023-03-29T04:03:40.086Z,100.00
2023-03-29T04:13:42.667Z,100.00
2023-03-29T04:23:46.843Z,100.00
2023-03-29T04:33:49.269Z,100.00
2023-03-29T04:43:52.398Z,100.00
2023-03-29T04:53:54.915Z,100.00
2023-03-29T05:03:57.516Z,100.00
2023-03-29T05:14:03.531Z,100.00
2023-03-29T05:24:06.565Z,100.00
2023-03-29T05:34:09.079Z,100.00
2023-03-29T05:44:11.518Z,100.00
2023-03-29T05:54:15.426Z,100.00
2023-03-29T06:04:18.414Z,100.00
2023-03-29T06:14:23.656Z,100.00
2023-03-29T06:24:26.277Z,100.00
2023-03-29T06:34:28.749Z,100.00
2023-03-29T06:44:31.197Z,100.00
2023-03-29T06:54:34.102Z,100.00
2023-03-29T07:04:36.661Z,100.00
2023-03-29T07:14:40.292Z,100.00
2023-03-29T07:24:42.846Z,100.00
2023-03-29T07:34:46.806Z,100.00
2023-03-29T07:44:49.679Z,100.00
2023-03-29T07:54:52.172Z,100.00
2023-03-29T08:04:55.132Z,100.00
2023-03-29T08:14:57.998Z,100.00
2023-03-29T08:25:00.763Z,100.00
2023-03-29T08:35:05.486Z,100.00
2023-03-29T08:45:23.497Z,100.00
2023-03-29T08:55:47.926Z,98.59
2023-03-29T09:05:59.831Z,93.00
2023-03-29T09:16:13.966Z,81.62
2023-03-29T09:26:34.656Z,80.68
2023-03-29T09:37:04.310Z,79.12
2023-03-29T09:47:19.190Z,75.95
2023-03-29T09:57:21.905Z,77.79
2023-03-29T10:07:24.816Z,75.68
2023-03-29T10:17:29.910Z,67.70
2023-03-29T10:27:36.721Z,58.78
2023-03-29T10:37:50.650Z,58.89
2023-03-29T10:48:01.108Z,53.31
2023-03-29T10:58:16.719Z,50.02
2023-03-29T11:08:32.979Z,45.55
2023-03-29T11:18:35.759Z,43.11
2023-03-29T11:28:44.928Z,42.87
2023-03-29T11:38:50.583Z,41.27
2023-03-29T11:49:02.987Z,39.37
2023-03-29T11:59:15.241Z,33.77
2023-03-29T12:09:41.806Z,35.43
2023-03-29T12:19:53.930Z,37.48
2023-03-29T12:30:17.871Z,37.42
2023-03-29T12:40:23.261Z,37.05
2023-03-29T12:50:37.804Z,39.49
2023-03-29T13:00:40.329Z,42.07
2023-03-29T13:10:43.468Z,43.33
2023-03-29T13:20:53.406Z,39.91
2023-03-29T13:31:13.749Z,39.82
2023-03-29T13:41:41.297Z,36.91
2023-03-29T13:52:03.310Z,33.65
2023-03-29T14:02:06.807Z,35.04
2023-03-29T14:12:14.331Z,32.18
2023-03-29T14:22:21.228Z,33.90
2023-03-29T14:42:34.127Z,34.14
2023-03-29T14:52:37.471Z,31.76
2023-03-29T15:02:50.531Z,34.87
2023-03-29T15:12:54.131Z,33.64
2023-03-29T15:23:01.775Z,34.60
2023-03-29T15:33:16.788Z,36.86
2023-03-29T15:43:22.042Z,36.62
2023-03-29T15:53:24.786Z,40.38
2023-03-29T16:03:30.131Z,40.34
2023-03-29T16:13:32.832Z,42.27
2023-03-29T16:23:35.805Z,46.55
2023-03-29T16:33:38.785Z,48.48
2023-03-29T16:43:41.162Z,49.16
2023-03-29T16:53:44.345Z,51.73
2023-03-29T17:03:47.325Z,54.88
2023-03-29T17:13:50.605Z,60.51
2023-03-29T17:23:53.082Z,65.97
2023-03-29T17:33:55.540Z,69.20
2023-03-29T17:43:58.221Z,71.16
2023-03-29T17:54:00.941Z,75.79
2023-03-29T18:04:03.528Z,90.25
2023-03-29T18:14:06.064Z,98.97
2023-03-29T18:24:09.197Z,100.00
2023-03-29T18:34:12.621Z,100.00
2023-03-29T18:44:15.998Z,100.00
2023-03-29T18:54:19.068Z,100.00
2023-03-29T19:04:21.667Z,100.00
2023-03-29T19:14:25.722Z,100.00
2023-03-29T19:24:28.553Z,100.00
2023-03-29T19:34:31.423Z,100.00
2023-03-29T19:44:34.875Z,100.00
2023-03-29T19:54:37.841Z,100.00
2023-03-29T20:04:41.249Z,100.00
2023-03-29T20:14:44.058Z,100.00
2023-03-29T20:24:46.825Z,100.00
2023-03-29T20:34:49.469Z,100.00
2023-03-29T20:44:54.158Z,100.00
2023-03-29T20:54:56.583Z,100.00
2023-03-29T21:05:00.746Z,100.00
2023-03-29T21:15:04.390Z,100.00
2023-03-29T21:25:10.056Z,100.00
2023-03-29T21:35:12.823Z,100.00
2023-03-29T21:45:15.206Z,100.00
2023-03-29T21:55:18.444Z,100.00
2023-03-29T22:05:21.213Z,100.00
2023-03-29T22:15:28.803Z,100.00
2023-03-29T22:25:31.988Z,100.00
2023-03-29T22:35:36.351Z,100.00
2023-03-29T22:45:38.727Z,100.00
2023-03-29T22:55:41.740Z,100.00
2023-03-29T23:06:04.719Z,100.00
2023-03-29T23:16:07.761Z,100.00
2023-03-29T23:26:10.625Z,100.00
2023-03-29T23:36:15.672Z,100.00
2023-03-29T23:46:19.813Z,100.00
2023-03-29T23:56:23.294Z,100.00
